createdAt,value
2023-01-18T00:00:09.119Z,51.323437
2023-01-18T00:01:09.074Z,51.323441
2023-01-18T00:02:09.102Z,51.323368
2023-01-18T00:03:09.021Z,51.323467
2023-01-18T00:04:09.017Z,51.323425
2023-01-18T00:05:09.075Z,51.323456
2023-01-18T00:06:08.971Z,51.323486
2023-01-18T00:07:08.983Z,51.323444
2023-01-18T00:08:08.927Z,51.323383
2023-01-18T00:09:08.900Z,51.323387
2023-01-18T00:10:08.877Z,51.323421
2023-01-18T00:11:08.887Z,51.323414
2023-01-18T00:12:08.867Z,51.323421
2023-01-18T00:13:08.824Z,51.323364
2023-01-18T00:14:08.811Z,51.323349
2023-01-18T00:15:08.778Z,51.323421
2023-01-18T00:16:08.800Z,51.323345
2023-01-18T00:17:08.772Z,51.323357
2023-01-18T00:18:08.720Z,51.323364
2023-01-18T00:19:08.700Z,51.323391
2023-01-18T00:20:08.688Z,51.323360
2023-01-18T00:21:08.667Z,51.323341
2023-01-18T00:22:08.660Z,51.323376
2023-01-18T00:23:08.616Z,51.323372
2023-01-18T00:24:08.598Z,51.323364
2023-01-18T00:25:08.584Z,51.323391
2023-01-18T00:26:08.591Z,51.323402
2023-01-18T00:27:08.566Z,51.323380
2023-01-18T00:28:08.519Z,51.323376
2023-01-18T00:29:08.503Z,51.323368
2023-01-18T00:30:08.483Z,51.323372
2023-01-18T00:31:08.464Z,51.323349
2023-01-18T00:32:08.459Z,51.323395
2023-01-18T00:33:08.422Z,51.323448
2023-01-18T00:34:08.397Z,51.323380
2023-01-18T00:35:08.378Z,51.323368
2023-01-18T00:36:08.360Z,51.323402
2023-01-18T00:37:08.357Z,51.323460
2023-01-18T00:38:08.315Z,51.323425
2023-01-18T00:39:08.293Z,51.323441
2023-01-18T00:40:08.275Z,51.323364
2023-01-18T00:41:08.267Z,51.323334
2023-01-18T00:42:08.263Z,51.323334
2023-01-18T00:43:08.262Z,51.323360
2023-01-18T00:44:08.194Z,51.323357
2023-01-18T00:45:08.169Z,51.323364
2023-01-18T00:46:09.199Z,51.323402
2023-01-18T00:47:08.184Z,51.323383
2023-01-18T00:48:08.110Z,51.323376
2023-01-18T00:49:08.094Z,51.323357
2023-01-18T00:50:08.072Z,51.323353
2023-01-18T00:51:08.053Z,51.323376
2023-01-18T00:52:08.052Z,51.323387
2023-01-18T00:53:08.014Z,51.323380
2023-01-18T00:54:07.993Z,51.323395
2023-01-18T00:55:07.977Z,51.323406
2023-01-18T00:56:07.957Z,51.323437
2023-01-18T00:57:07.978Z,51.323406
2023-01-18T00:58:07.917Z,51.323410
2023-01-18T00:59:07.899Z,51.323391
2023-01-18T01:00:07.878Z,51.323360
2023-01-18T01:01:07.994Z,51.323380
2023-01-18T01:02:08.132Z,51.323380
2023-01-18T01:03:07.816Z,51.323418
2023-01-18T01:04:07.794Z,51.323368
2023-01-18T01:05:07.775Z,51.323349
2023-01-18T01:06:07.765Z,51.323395
2023-01-18T01:07:07.769Z,51.323391
2023-01-18T01:08:07.729Z,51.323383
2023-01-18T01:09:07.696Z,51.323380
2023-01-18T01:10:07.672Z,51.323368
2023-01-18T01:11:07.660Z,51.323380
2023-01-18T01:12:07.655Z,51.323380
2023-01-18T01:13:07.650Z,51.323391
2023-01-18T01:14:07.594Z,51.323391
2023-01-18T01:15:07.578Z,51.323383
2023-01-18T01:16:07.557Z,51.323372
2023-01-18T01:17:07.568Z,51.323391
2023-01-18T01:18:07.515Z,51.323360
2023-01-18T01:19:07.489Z,51.323391
2023-01-18T01:20:07.477Z,51.323391
2023-01-18T01:21:07.458Z,51.323395
2023-01-18T01:22:07.461Z,51.323387
2023-01-18T01:23:07.411Z,51.323395
2023-01-18T01:24:07.398Z,51.323357
2023-01-18T01:25:07.390Z,51.323360
2023-01-18T01:26:07.370Z,51.323345
2023-01-18T01:27:07.370Z,51.323341
2023-01-18T01:28:07.315Z,51.323357
2023-01-18T01:29:07.297Z,51.323349
2023-01-18T01:30:07.275Z,51.323368
2023-01-18T01:31:07.363Z,51.323372
2023-01-18T01:32:07.298Z,51.323368
2023-01-18T01:33:07.218Z,51.323376
2023-01-18T01:34:07.236Z,51.323402
2023-01-18T01:35:07.189Z,51.323406
2023-01-18T01:36:07.153Z,51.323421
2023-01-18T01:37:07.164Z,51.323425
2023-01-18T01:38:07.121Z,51.323399
2023-01-18T01:39:07.123Z,51.323372
2023-01-18T01:40:07.076Z,51.323406
2023-01-18T01:41:07.068Z,51.323414
2023-01-18T01:42:07.064Z,51.323406
2023-01-18T01:43:07.027Z,51.323399
2023-01-18T01:44:06.994Z,51.323429
2023-01-18T01:45:06.978Z,51.323402
2023-01-18T01:46:06.971Z,51.323425
2023-01-18T01:47:06.974Z,51.323402
2023-01-18T01:48:07.917Z,51.323429
2023-01-18T01:49:06.897Z,51.323418
2023-01-18T01:50:06.905Z,51.323425
2023-01-18T01:51:06.862Z,51.323421
2023-01-18T01:52:06.860Z,51.323406
2023-01-18T01:53:06.812Z,51.323387
2023-01-18T01:54:06.804Z,51.323383
2023-01-18T01:55:06.773Z,51.323399
2023-01-18T01:56:06.746Z,51.323421
2023-01-18T01:57:06.751Z,51.323414
2023-01-18T01:58:06.708Z,51.323418
2023-01-18T01:59:06.692Z,51.323437
2023-01-18T02:00:06.663Z,51.323437
2023-01-18T02:01:06.705Z,51.323463
2023-01-18T02:02:06.754Z,51.323448
2023-01-18T02:03:06.603Z,51.323444
2023-01-18T02:04:06.580Z,51.323433
2023-01-18T02:05:06.559Z,51.323448
2023-01-18T02:06:06.537Z,51.323441
2023-01-18T02:07:06.559Z,51.323460
2023-01-18T02:08:06.494Z,51.323486
2023-01-18T02:09:06.473Z,51.323441
2023-01-18T02:10:06.452Z,51.323437
2023-01-18T02:11:06.429Z,51.323429
2023-01-18T02:12:06.437Z,51.323433
2023-01-18T02:13:06.391Z,51.323425
2023-01-18T02:14:06.371Z,51.323421
2023-01-18T02:15:06.346Z,51.323410
2023-01-18T02:16:06.337Z,51.323418
2023-01-18T02:17:06.339Z,51.323429
2023-01-18T02:18:06.293Z,51.323437
2023-01-18T02:19:06.271Z,51.323471
2023-01-18T02:20:06.243Z,51.323448
2023-01-18T02:21:06.225Z,51.323406
2023-01-18T02:22:06.233Z,51.323437
2023-01-18T02:23:06.181Z,51.323433
2023-01-18T02:24:06.163Z,51.323418
2023-01-18T02:25:06.141Z,51.323414
2023-01-18T02:26:06.126Z,51.323444
2023-01-18T02:27:06.153Z,51.323402
2023-01-18T02:28:06.080Z,51.323425
2023-01-18T02:29:06.061Z,51.323410
2023-01-18T02:30:06.028Z,51.323410
2023-01-18T02:31:07.102Z,51.323380
2023-01-18T02:32:05.998Z,51.323402
2023-01-18T02:33:06.002Z,51.323448
2023-01-18T02:34:05.954Z,51.323441
2023-01-18T02:35:05.932Z,51.323399
2023-01-18T02:36:05.913Z,51.323418
2023-01-18T02:37:05.890Z,51.323429
2023-01-18T02:38:05.899Z,51.323448
2023-01-18T02:39:05.856Z,51.323429
2023-01-18T02:40:05.831Z,51.323421
2023-01-18T02:41:05.842Z,51.323444
2023-01-18T02:42:05.797Z,51.323425
2023-01-18T02:43:05.801Z,51.323437
2023-01-18T02:44:05.745Z,51.323448
2023-01-18T02:45:05.732Z,51.323425
2023-01-18T02:46:05.762Z,51.323418
2023-01-18T02:47:05.690Z,51.323406
2023-01-18T02:48:05.689Z,51.323456
2023-01-18T02:49:05.644Z,51.323444
2023-01-18T02:50:05.621Z,51.323452
2023-01-18T02:51:05.614Z,51.323444
2023-01-18T02:52:05.577Z,51.323441
2023-01-18T02:53:05.581Z,51.323444
2023-01-18T02:54:06.538Z,51.323425
2023-01-18T02:55:05.519Z,51.323429
2023-01-18T02:56:05.501Z,51.323421
2023-01-18T02:57:05.471Z,51.323406
2023-01-18T02:58:05.481Z,51.323357
2023-01-18T02:59:05.438Z,51.323391
2023-01-18T03:00:05.413Z,51.323441
2023-01-18T03:01:05.434Z,51.323387
2023-01-18T03:02:05.442Z,51.323334
2023-01-18T03:03:05.377Z,51.323307
2023-01-18T03:04:05.325Z,51.323334
2023-01-18T03:05:05.308Z,51.323380
2023-01-18T03:06:05.286Z,51.323399
2023-01-18T03:07:05.267Z,51.323410
2023-01-18T03:08:05.271Z,51.323387
2023-01-18T03:09:05.224Z,51.323410
2023-01-18T03:10:05.203Z,51.323444
2023-01-18T03:11:05.192Z,51.323444
2023-01-18T03:12:05.166Z,51.323475
2023-01-18T03:13:05.171Z,51.323460
2023-01-18T03:14:05.128Z,51.323475
2023-01-18T03:15:05.113Z,51.323402
2023-01-18T03:16:05.103Z,51.323406
2023-01-18T03:17:05.073Z,51.323399
2023-01-18T03:18:05.074Z,51.323406
2023-01-18T03:19:05.051Z,51.323421
2023-01-18T03:20:05.006Z,51.323383
2023-01-18T03:21:04.990Z,51.323433
2023-01-18T03:22:04.968Z,51.323437
2023-01-18T03:23:04.977Z,51.323433
2023-01-18T03:24:04.927Z,51.323429
2023-01-18T03:25:04.911Z,51.323452
2023-01-18T03:26:04.888Z,51.323395
2023-01-18T03:27:04.869Z,51.323410
2023-01-18T03:28:04.877Z,51.323463
2023-01-18T03:29:04.826Z,51.323475
2023-01-18T03:30:04.809Z,51.323433
2023-01-18T03:31:04.900Z,51.323433
2023-01-18T03:32:04.771Z,51.323421
2023-01-18T03:33:04.778Z,51.323448
2023-01-18T03:34:04.739Z,51.323448
2023-01-18T03:35:04.718Z,51.323441
2023-01-18T03:36:04.687Z,51.323456
2023-01-18T03:37:04.678Z,51.323467
2023-01-18T03:38:04.667Z,51.323437
2023-01-18T03:39:04.624Z,51.323429
2023-01-18T03:40:04.613Z,51.323441
2023-01-18T03:41:04.584Z,51.323410
2023-01-18T03:42:04.564Z,51.323414
2023-01-18T03:43:04.566Z,51.323425
2023-01-18T03:44:04.523Z,51.323444
2023-01-18T03:45:04.504Z,51.323429
2023-01-18T03:46:04.512Z,51.323425
2023-01-18T03:47:04.459Z,51.323399
2023-01-18T03:48:04.465Z,51.323429
2023-01-18T03:49:04.417Z,51.323467
2023-01-18T03:50:04.396Z,51.323429
2023-01-18T03:51:04.385Z,51.323448
2023-01-18T03:52:04.354Z,51.323421
2023-01-18T03:53:04.363Z,51.323387
2023-01-18T03:54:04.315Z,51.323357
2023-01-18T03:55:04.297Z,51.323360
2023-01-18T03:56:04.276Z,51.323452
2023-01-18T03:57:04.256Z,51.323471
2023-01-18T03:58:04.261Z,51.323475
2023-01-18T03:59:04.216Z,51.323475
2023-01-18T04:00:04.188Z,51.323441
2023-01-18T04:01:04.299Z,51.323463
2023-01-18T04:02:04.211Z,51.323460
2023-01-18T04:03:04.206Z,51.323421
2023-01-18T04:04:04.121Z,51.323441
2023-01-18T04:05:04.095Z,51.323494
2023-01-18T04:06:04.079Z,51.323421
2023-01-18T04:07:04.061Z,51.323418
2023-01-18T04:08:04.049Z,51.323437
2023-01-18T04:09:05.011Z,51.323456
2023-01-18T04:10:03.988Z,51.323399
2023-01-18T04:11:03.981Z,51.323418
2023-01-18T04:12:03.947Z,51.323414
2023-01-18T04:13:03.950Z,51.323410
2023-01-18T04:14:03.909Z,51.323402
2023-01-18T04:15:03.883Z,51.323402
2023-01-18T04:16:03.882Z,51.323418
2023-01-18T04:17:03.850Z,51.323452
2023-01-18T04:18:03.847Z,51.323414
2023-01-18T04:19:03.800Z,51.323376
2023-01-18T04:20:03.776Z,51.323418
2023-01-18T04:21:03.760Z,51.323452
2023-01-18T04:22:03.740Z,51.323391
2023-01-18T04:23:03.742Z,51.323441
2023-01-18T04:24:03.688Z,51.323433
2023-01-18T04:25:03.671Z,51.323425
2023-01-18T04:26:03.648Z,51.323418
2023-01-18T04:27:03.625Z,51.323444
2023-01-18T04:28:03.643Z,51.323368
2023-01-18T04:29:03.589Z,51.323372
2023-01-18T04:30:03.572Z,51.323410
2023-01-18T04:31:03.617Z,51.323410
2023-01-18T04:32:03.524Z,51.323391
2023-01-18T04:33:03.525Z,51.323399
2023-01-18T04:34:03.489Z,51.323433
2023-01-18T04:35:03.460Z,51.323360
2023-01-18T04:36:03.444Z,51.323433
2023-01-18T04:37:03.414Z,51.323402
2023-01-18T04:38:03.420Z,51.323429
2023-01-18T04:39:03.375Z,51.323368
2023-01-18T04:40:03.355Z,51.323410
2023-01-18T04:41:03.332Z,51.323383
2023-01-18T04:42:03.312Z,51.323402
2023-01-18T04:43:03.314Z,51.323402
2023-01-18T04:44:03.269Z,51.323399
2023-01-18T04:45:03.249Z,51.323418
2023-01-18T04:46:03.227Z,51.323414
2023-01-18T04:47:03.207Z,51.323414
2023-01-18T04:48:03.214Z,51.323391
2023-01-18T04:49:03.164Z,51.323402
2023-01-18T04:50:03.139Z,51.323460
2023-01-18T04:51:03.126Z,51.323421
2023-01-18T04:52:03.098Z,51.323418
2023-01-18T04:53:03.107Z,51.323414
2023-01-18T04:54:03.054Z,51.323406
2023-01-18T04:55:03.039Z,51.323395
2023-01-18T04:56:03.015Z,51.323391
2023-01-18T04:57:03.003Z,51.323391
2023-01-18T04:58:03.009Z,51.323421
2023-01-18T04:59:02.952Z,51.323418
2023-01-18T05:00:02.937Z,51.323425
2023-01-18T05:01:03.094Z,51.323425
2023-01-18T05:02:02.958Z,51.323414
2023-01-18T05:03:02.891Z,51.323429
2023-01-18T05:04:02.856Z,51.323421
2023-01-18T05:05:02.832Z,51.323402
2023-01-18T05:06:02.821Z,51.323383
2023-01-18T05:07:02.792Z,51.323383
2023-01-18T05:08:02.799Z,51.323383
2023-01-18T05:09:02.757Z,51.323383
2023-01-18T05:10:02.767Z,51.323410
2023-01-18T05:11:02.711Z,51.323414
2023-01-18T05:12:02.694Z,51.323418
2023-01-18T05:13:02.695Z,51.323421
2023-01-18T05:14:02.652Z,51.323421
2023-01-18T05:15:02.638Z,51.323395
2023-01-18T05:16:05.202Z,51.323383
2023-01-18T05:17:02.602Z,51.323410
2023-01-18T05:18:02.640Z,51.323395
2023-01-18T05:19:02.555Z,51.323399
2023-01-18T05:20:02.532Z,51.323418
2023-01-18T05:21:02.534Z,51.323406
2023-01-18T05:22:02.489Z,51.323383
2023-01-18T05:23:02.498Z,51.323402
2023-01-18T05:24:02.456Z,51.323406
2023-01-18T05:25:02.429Z,51.323376
2023-01-18T05:26:02.413Z,51.323391
2023-01-18T05:27:02.396Z,51.323414
2023-01-18T05:28:02.371Z,51.323399
2023-01-18T05:29:02.376Z,51.323395
2023-01-18T05:30:02.327Z,51.323349
2023-01-18T05:31:02.321Z,51.323368
2023-01-18T05:32:02.288Z,51.323376
2023-01-18T05:33:02.270Z,51.323372
2023-01-18T05:34:02.293Z,51.323380
2023-01-18T05:35:02.235Z,51.323402
2023-01-18T05:36:02.215Z,51.323383
2023-01-18T05:37:02.199Z,51.323399
2023-01-18T05:38:02.173Z,51.323380
2023-01-18T05:39:02.174Z,51.323376
2023-01-18T05:40:02.129Z,51.323372
2023-01-18T05:41:02.108Z,51.323410
2023-01-18T05:42:02.089Z,51.323418
2023-01-18T05:43:02.067Z,51.323410
2023-01-18T05:44:02.086Z,51.323410
2023-01-18T05:45:02.044Z,51.323380
2023-01-18T05:46:02.064Z,51.323372
2023-01-18T05:47:01.986Z,51.323399
2023-01-18T05:48:01.969Z,51.323364
2023-01-18T05:49:01.969Z,51.323349
2023-01-18T05:50:01.938Z,51.323380
2023-01-18T05:51:01.905Z,51.323383
2023-01-18T05:52:01.884Z,51.323376
2023-01-18T05:53:02.142Z,51.323349
2023-01-18T05:54:01.875Z,51.323368
2023-01-18T05:55:01.827Z,51.323395
2023-01-18T05:56:01.796Z,51.323402
2023-01-18T05:57:01.780Z,51.323414
2023-01-18T05:58:01.760Z,51.323448
2023-01-18T05:59:01.758Z,51.323406
2023-01-18T06:00:01.756Z,51.323425
2023-01-18T06:01:01.777Z,51.323475
2023-01-18T06:02:01.714Z,51.323452
2023-01-18T06:03:01.760Z,51.323402
2023-01-18T06:04:01.708Z,51.323399
2023-01-18T06:05:01.612Z,51.323414
2023-01-18T06:06:01.602Z,51.323391
2023-01-18T06:07:01.579Z,51.323380
2023-01-18T06:08:01.550Z,51.323414
2023-01-18T06:09:01.555Z,51.323406
2023-01-18T06:10:01.548Z,51.323456
2023-01-18T06:11:01.491Z,51.323418
2023-01-18T06:12:01.483Z,51.323414
2023-01-18T06:13:01.567Z,51.323391
2023-01-18T06:14:01.467Z,51.323372
2023-01-18T06:15:01.405Z,51.323353
2023-01-18T06:16:01.442Z,51.323368
2023-01-18T06:17:01.369Z,51.323345
2023-01-18T06:18:01.341Z,51.323395
2023-01-18T06:19:01.346Z,51.323364
2023-01-18T06:20:01.308Z,51.323376
2023-01-18T06:21:01.679Z,51.323391
2023-01-18T06:22:02.257Z,51.323364
2023-01-18T06:23:01.690Z,51.323292
2023-01-18T06:24:01.241Z,51.323341
2023-01-18T06:25:01.195Z,51.323387
2023-01-18T06:26:01.185Z,51.323368
2023-01-18T06:27:01.149Z,51.323334
2023-01-18T06:28:01.128Z,51.323345
2023-01-18T06:29:01.135Z,51.323402
2023-01-18T06:30:01.094Z,51.323380
2023-01-18T06:31:01.069Z,51.323387
2023-01-18T06:32:01.111Z,51.323414
2023-01-18T06:33:01.329Z,51.323414
2023-01-18T06:34:01.025Z,51.323433
2023-01-18T06:35:00.982Z,51.323421
2023-01-18T06:36:00.962Z,51.323421
2023-01-18T06:37:00.940Z,51.323421
2023-01-18T06:38:00.933Z,51.323399
2023-01-18T06:39:00.940Z,51.323376
2023-01-18T06:40:02.797Z,51.323425
2023-01-18T06:41:01.855Z,51.323460
2023-01-18T06:42:00.829Z,51.323421
2023-01-18T06:43:01.388Z,51.323437
2023-01-18T06:44:00.817Z,51.323372
2023-01-18T06:45:00.777Z,51.323387
2023-01-18T06:46:00.824Z,51.323376
2023-01-18T06:47:00.726Z,51.323364
2023-01-18T06:48:00.715Z,51.323437
2023-01-18T06:49:00.727Z,51.323456
2023-01-18T06:50:00.667Z,51.323410
2023-01-18T06:51:00.648Z,51.323364
2023-01-18T06:52:00.632Z,51.323410
2023-01-18T06:53:01.089Z,51.323364
2023-01-18T06:54:00.624Z,51.323399
2023-01-18T06:55:00.562Z,51.323364
2023-01-18T06:56:00.543Z,51.323410
2023-01-18T06:57:00.522Z,51.323421
2023-01-18T06:58:00.502Z,51.323433
2023-01-18T06:59:00.510Z,51.323421
2023-01-18T07:00:00.464Z,51.323402
2023-01-18T07:01:00.554Z,51.323425
2023-01-18T07:02:00.505Z,51.323395
2023-01-18T07:03:00.765Z,51.323414
2023-01-18T07:04:00.420Z,51.323395
2023-01-18T07:05:00.365Z,51.323433
2023-01-18T07:06:00.340Z,51.323444
2023-01-18T07:07:00.315Z,51.323429
2023-01-18T07:08:00.291Z,51.323448
2023-01-18T07:09:00.293Z,51.323425
2023-01-18T07:10:00.264Z,51.323433
2023-01-18T07:11:00.230Z,51.323437
2023-01-18T07:12:00.206Z,51.323452
2023-01-18T07:13:00.848Z,51.323357
2023-01-18T07:14:00.189Z,51.323421
2023-01-18T07:15:04.906Z,51.323444
2023-01-18T07:16:01.347Z,51.323452
2023-01-18T07:17:01.172Z,51.323402
2023-01-18T07:18:00.114Z,51.323502
2023-01-18T07:19:00.111Z,51.323456
2023-01-18T07:20:00.049Z,51.323303
2023-01-18T07:21:00.038Z,51.323311
2023-01-18T07:22:00.005Z,51.323372
2023-01-18T07:23:00.374Z,51.323418
2023-01-18T07:23:59.989Z,51.323555
2023-01-18T07:24:59.937Z,51.323570
2023-01-18T07:25:59.920Z,51.323540
2023-01-18T07:26:59.905Z,51.323601
2023-01-18T07:27:59.874Z,51.323536
2023-01-18T07:28:59.879Z,51.323479
2023-01-18T07:29:59.827Z,51.323471
2023-01-18T07:30:59.820Z,51.323387
2023-01-18T07:31:59.848Z,51.323441
2023-01-18T07:33:00.155Z,51.323517
2023-01-18T07:33:59.779Z,51.323551
2023-01-18T07:34:59.729Z,51.323441
2023-01-18T07:35:59.718Z,51.323498
2023-01-18T07:36:59.691Z,51.323517
2023-01-18T07:37:59.673Z,51.323547
2023-01-18T07:38:59.677Z,51.323467
2023-01-18T07:39:59.630Z,51.323448
2023-01-18T07:40:59.628Z,51.323429
2023-01-18T07:41:59.588Z,51.323479
2023-01-18T07:42:59.990Z,51.323505
2023-01-18T07:43:59.574Z,51.323471
2023-01-18T07:44:59.528Z,51.323441
2023-01-18T07:45:59.518Z,51.323483
2023-01-18T07:46:59.528Z,51.323479
2023-01-18T07:47:59.475Z,51.323402
2023-01-18T07:48:59.488Z,51.323483
2023-01-18T07:49:59.428Z,51.323421
2023-01-18T07:50:59.407Z,51.323433
2023-01-18T07:51:59.388Z,51.323452
2023-01-18T07:52:59.763Z,51.323421
2023-01-18T07:53:59.378Z,51.323414
2023-01-18T07:54:59.329Z,51.323437
2023-01-18T07:55:59.314Z,51.323433
2023-01-18T07:56:59.295Z,51.323441
2023-01-18T07:57:59.270Z,51.323463
2023-01-18T07:58:59.282Z,51.323460
2023-01-18T07:59:59.250Z,51.323441
2023-01-18T08:00:59.250Z,51.323456
2023-01-18T08:01:59.191Z,51.323452
2023-01-18T08:02:59.420Z,51.323456
2023-01-18T08:04:00.193Z,51.323448
2023-01-18T08:04:59.134Z,51.323444
2023-01-18T08:05:59.115Z,51.323437
2023-01-18T08:06:59.093Z,51.323471
2023-01-18T08:07:59.072Z,51.323467
2023-01-18T08:08:59.055Z,51.323486
2023-01-18T08:09:59.087Z,51.323456
2023-01-18T08:10:59.034Z,51.323467
2023-01-18T08:11:58.997Z,51.323460
2023-01-18T08:12:59.307Z,51.323456
2023-01-18T08:13:58.996Z,51.323460
2023-01-18T08:14:58.950Z,51.323471
2023-01-18T08:15:58.983Z,51.323479
2023-01-18T08:16:58.935Z,51.323460
2023-01-18T08:17:58.881Z,51.323475
2023-01-18T08:18:58.888Z,51.323471
2023-01-18T08:19:58.845Z,51.323490
2023-01-18T08:20:58.823Z,51.323471
2023-01-18T08:21:58.800Z,51.323433
2023-01-18T08:22:59.113Z,51.323463
2023-01-18T08:23:58.791Z,51.323456
2023-01-18T08:24:58.771Z,51.323460
2023-01-18T08:25:58.727Z,51.323467
2023-01-18T08:26:58.708Z,51.323467
2023-01-18T08:27:58.691Z,51.323463
2023-01-18T08:28:58.675Z,51.323448
2023-01-18T08:29:58.682Z,51.323444
2023-01-18T08:30:58.699Z,51.323448
2023-01-18T08:31:58.629Z,51.323460
2023-01-18T08:32:58.966Z,51.323551
2023-01-18T08:33:58.580Z,51.323517
2023-01-18T08:34:58.618Z,51.323486
2023-01-18T08:35:58.540Z,51.323475
2023-01-18T08:36:58.528Z,51.323471
2023-01-18T08:37:58.501Z,51.323456
2023-01-18T08:38:58.485Z,51.323460
2023-01-18T08:39:58.493Z,51.323452
2023-01-18T08:40:58.449Z,51.323456
2023-01-18T08:41:58.431Z,51.323467
2023-01-18T08:42:58.792Z,51.323452
2023-01-18T08:43:58.399Z,51.323460
2023-01-18T08:44:58.407Z,51.323463
2023-01-18T08:45:58.365Z,51.323471
2023-01-18T08:46:58.336Z,51.323475
2023-01-18T08:47:58.320Z,51.323471
2023-01-18T08:48:58.297Z,51.323486
2023-01-18T08:49:58.306Z,51.323463
2023-01-18T08:50:58.275Z,51.323471
2023-01-18T08:51:58.244Z,51.323467
2023-01-18T08:52:58.551Z,51.323479
2023-01-18T08:53:58.205Z,51.323448
2023-01-18T08:54:58.212Z,51.323463
2023-01-18T08:55:58.168Z,51.323463
2023-01-18T08:56:58.145Z,51.323483
2023-01-18T08:57:58.189Z,51.323524
2023-01-18T08:58:58.116Z,51.323494
2023-01-18T08:59:58.119Z,51.323467
2023-01-18T09:00:58.118Z,51.323467
2023-01-18T09:01:58.060Z,51.323460
2023-01-18T09:02:58.616Z,51.323463
2023-01-18T09:03:58.020Z,51.323479
2023-01-18T09:04:58.028Z,51.323479
2023-01-18T09:05:57.980Z,51.323490
2023-01-18T09:06:57.963Z,51.323448
2023-01-18T09:07:58.021Z,51.323441
2023-01-18T09:08:57.923Z,51.323456
2023-01-18T09:09:57.931Z,51.323456
2023-01-18T09:10:57.887Z,51.323448
2023-01-18T09:11:57.890Z,51.323471
2023-01-18T09:12:58.310Z,51.323471
2023-01-18T09:14:01.912Z,51.323490
2023-01-18T09:14:58.842Z,51.323479
2023-01-18T09:15:57.872Z,51.323429
2023-01-18T09:16:57.798Z,51.323441
2023-01-18T09:17:57.761Z,51.323460
2023-01-18T09:18:57.749Z,51.323471
2023-01-18T09:19:57.746Z,51.323456
2023-01-18T09:20:57.709Z,51.323429
2023-01-18T09:21:57.684Z,51.323433
2023-01-18T09:22:58.051Z,51.323437
2023-01-18T09:23:57.656Z,51.323456
2023-01-18T09:24:57.670Z,51.323475
2023-01-18T09:25:57.614Z,51.323448
2023-01-18T09:26:57.598Z,51.323433
2023-01-18T09:27:57.582Z,51.323418
2023-01-18T09:28:57.565Z,51.323421
2023-01-18T09:29:57.562Z,51.323448
2023-01-18T09:30:57.519Z,51.323421
2023-01-18T09:31:57.498Z,51.323410
2023-01-18T09:32:57.989Z,51.323414
2023-01-18T09:34:06.349Z,51.323433
2023-01-18T09:34:59.467Z,51.323441
2023-01-18T09:35:57.435Z,51.323437
2023-01-18T09:36:57.406Z,51.323441
2023-01-18T09:37:57.416Z,51.323425
2023-01-18T09:38:57.377Z,51.323437
2023-01-18T09:39:57.381Z,51.323437
2023-01-18T09:40:57.340Z,51.323429
2023-01-18T09:41:57.310Z,51.323429
2023-01-18T09:42:57.792Z,51.323414
2023-01-18T09:43:57.279Z,51.323429
2023-01-18T09:44:57.291Z,51.323402
2023-01-18T09:45:57.251Z,51.323444
2023-01-18T09:46:57.252Z,51.323425
2023-01-18T09:47:57.201Z,51.323425
2023-01-18T09:48:57.188Z,51.323433
2023-01-18T09:49:57.167Z,51.323410
2023-01-18T09:50:57.171Z,51.323425
2023-01-18T09:51:57.134Z,51.323433
2023-01-18T09:52:57.536Z,51.323425
2023-01-18T09:53:57.113Z,51.323414
2023-01-18T09:54:57.073Z,51.323425
2023-01-18T09:55:57.099Z,51.323406
2023-01-18T09:56:57.042Z,51.323437
2023-01-18T09:57:57.020Z,51.323433
2023-01-18T09:58:56.995Z,51.323429
2023-01-18T09:59:56.980Z,51.323425
2023-01-18T10:00:57.066Z,51.323429
2023-01-18T10:01:57.058Z,51.323421
2023-01-18T10:02:57.430Z,51.323406
2023-01-18T10:03:56.906Z,51.323429
2023-01-18T10:04:56.890Z,51.323429
2023-01-18T10:05:56.872Z,51.323421
2023-01-18T10:06:56.851Z,51.323425
2023-01-18T10:07:56.859Z,51.323456
2023-01-18T10:08:56.812Z,51.323418
2023-01-18T10:09:56.807Z,51.323414
2023-01-18T10:10:56.801Z,51.323429
2023-01-18T10:11:56.770Z,51.323425
2023-01-18T10:12:57.155Z,51.323418
2023-01-18T10:13:56.728Z,51.323402
2023-01-18T10:14:56.701Z,51.323414
2023-01-18T10:15:56.741Z,51.323429
2023-01-18T10:16:56.665Z,51.323414
2023-01-18T10:17:56.656Z,51.323387
2023-01-18T10:18:56.620Z,51.323437
2023-01-18T10:19:56.600Z,51.323418
2023-01-18T10:20:56.605Z,51.323406
2023-01-18T10:21:56.561Z,51.323463
2023-01-18T10:22:56.836Z,51.323425
2023-01-18T10:23:56.523Z,51.323421
2023-01-18T10:24:56.509Z,51.323406
2023-01-18T10:25:56.517Z,51.323414
2023-01-18T10:26:56.507Z,51.323433
2023-01-18T10:27:56.446Z,51.323425
2023-01-18T10:28:56.427Z,51.323452
2023-01-18T10:29:56.408Z,51.323479
2023-01-18T10:30:56.422Z,51.323460
2023-01-18T10:31:56.374Z,51.323399
2023-01-18T10:32:56.825Z,51.323433
2023-01-18T10:33:56.350Z,51.323429
2023-01-18T10:34:56.321Z,51.323433
2023-01-18T10:35:56.330Z,51.323429
2023-01-18T10:36:56.283Z,51.323414
2023-01-18T10:37:56.485Z,51.323410
2023-01-18T10:38:56.277Z,51.323399
2023-01-18T10:39:56.230Z,51.323425
2023-01-18T10:40:56.235Z,51.323437
2023-01-18T10:41:56.193Z,51.323421
2023-01-18T10:42:56.574Z,51.323433
2023-01-18T10:43:56.178Z,51.323421
2023-01-18T10:44:56.139Z,51.323433
2023-01-18T10:45:56.195Z,51.323448
2023-01-18T10:46:56.116Z,51.323429
2023-01-18T10:47:56.086Z,51.323456
2023-01-18T10:48:56.069Z,51.323444
2023-01-18T10:49:56.052Z,51.323433
2023-01-18T10:50:56.060Z,51.323429
2023-01-18T10:51:56.015Z,51.323444
2023-01-18T10:52:56.069Z,51.323448
2023-01-18T10:53:56.016Z,51.323437
2023-01-18T10:54:55.976Z,51.323441
2023-01-18T10:55:55.993Z,51.323433
2023-01-18T10:56:55.925Z,51.323441
2023-01-18T10:57:56.112Z,51.323441
2023-01-18T10:58:55.891Z,51.323441
2023-01-18T10:59:56.869Z,51.323433
2023-01-18T11:00:55.910Z,51.323448
2023-01-18T11:01:55.976Z,51.323471
2023-01-18T11:02:55.816Z,51.323433
2023-01-18T11:03:55.805Z,51.323429
2023-01-18T11:04:55.779Z,51.323410
2023-01-18T11:05:55.791Z,51.323399
2023-01-18T11:06:55.745Z,51.323421
2023-01-18T11:07:55.726Z,51.323421
2023-01-18T11:08:55.708Z,51.323387
2023-01-18T11:09:55.724Z,51.323410
2023-01-18T11:10:55.700Z,51.323414
2023-01-18T11:11:55.663Z,51.323421
2023-01-18T11:12:55.655Z,51.323418
2023-01-18T11:13:55.625Z,51.323410
2023-01-18T11:14:55.606Z,51.323399
2023-01-18T11:15:55.625Z,51.323437
2023-01-18T11:16:55.573Z,51.323471
2023-01-18T11:17:55.571Z,51.323463
2023-01-18T11:18:55.622Z,51.323471
2023-01-18T11:19:55.521Z,51.323425
2023-01-18T11:20:55.504Z,51.323410
2023-01-18T11:21:55.491Z,51.323418
2023-01-18T11:22:55.471Z,51.323425
2023-01-18T11:23:55.445Z,51.323425